sensor_id;sensor_type;location;lat;lon;timestamp;temperature;humidity
53314;DHT22;39202;51.468;7.146;2022-11-18T00:04:47;23.50;45.60
53314;DHT22;39202;51.468;7.146;2022-11-18T00:09:50;23.50;45.60
53314;DHT22;39202;51.468;7.146;2022-11-18T00:14:52;23.50;45.70
53314;DHT22;39202;51.468;7.146;2022-11-18T00:19:53;23.50;45.70
53314;DHT22;39202;51.468;7.146;2022-11-18T00:24:56;23.50;45.70
53314;DHT22;39202;51.468;7.146;2022-11-18T00:29:58;23.50;45.70
53314;DHT22;39202;51.468;7.146;2022-11-18T00:35:00;23.50;45.70
53314;DHT22;39202;51.468;7.146;2022-11-18T00:40:04;23.50;45.70
53314;DHT22;39202;51.468;7.146;2022-11-18T00:45:06;23.40;45.70
53314;DHT22;39202;51.468;7.146;2022-11-18T00:50:08;23.40;45.70
53314;DHT22;39202;51.468;7.146;2022-11-18T00:55:11;23.40;45.70
53314;DHT22;39202;51.468;7.146;2022-11-18T01:00:13;23.40;45.70
53314;DHT22;39202;51.468;7.146;2022-11-18T01:05:15;23.40;45.70
53314;DHT22;39202;51.468;7.146;2022-11-18T01:10:18;23.40;45.70
53314;DHT22;39202;51.468;7.146;2022-11-18T01:15:20;23.40;45.70
53314;DHT22;39202;51.468;7.146;2022-11-18T01:20:22;23.40;45.70
53314;DHT22;39202;51.468;7.146;2022-11-18T01:25:25;23.40;45.70
53314;DHT22;39202;51.468;7.146;2022-11-18T01:30:27;23.40;45.70
53314;DHT22;39202;51.468;7.146;2022-11-18T01:35:28;23.40;45.70
53314;DHT22;39202;51.468;7.146;2022-11-18T01:40:32;23.40;45.70
53314;DHT22;39202;51.468;7.146;2022-11-18T01:45:37;23.40;45.70
53314;DHT22;39202;51.468;7.146;2022-11-18T01:50:43;23.30;45.70
53314;DHT22;39202;51.468;7.146;2022-11-18T01:55:51;23.30;45.70
53314;DHT22;39202;51.468;7.146;2022-11-18T02:00:54;23.30;45.70
53314;DHT22;39202;51.468;7.146;2022-11-18T02:05:56;23.30;45.70
53314;DHT22;39202;51.468;7.146;2022-11-18T02:11:01;23.30;45.70
53314;DHT22;39202;51.468;7.146;2022-11-18T02:16:07;23.30;45.70
53314;DHT22;39202;51.468;7.146;2022-11-18T02:21:22;23.30;45.70
53314;DHT22;39202;51.468;7.146;2022-11-18T02:27:00;23.30;45.70
53314;DHT22;39202;51.468;7.146;2022-11-18T02:32:11;23.30;45.70
53314;DHT22;39202;51.468;7.146;2022-11-18T02:37:19;23.30;46.40
53314;DHT22;39202;51.468;7.146;2022-11-18T02:42:23;23.30;45.70
53314;DHT22;39202;51.468;7.146;2022-11-18T02:47:28;23.30;45.70
53314;DHT22;39202;51.468;7.146;2022-11-18T02:52:33;23.30;45.70
53314;DHT22;39202;51.468;7.146;2022-11-18T02:57:36;23.30;45.70
53314;DHT22;39202;51.468;7.146;2022-11-18T03:02:42;23.20;45.70
53314;DHT22;39202;51.468;7.146;2022-11-18T03:07:49;23.20;45.70
53314;DHT22;39202;51.468;7.146;2022-11-18T03:12:59;23.20;45.70
53314;DHT22;39202;51.468;7.146;2022-11-18T03:18:14;23.20;45.70
53314;DHT22;39202;51.468;7.146;2022-11-18T03:23:23;23.20;45.70
53314;DHT22;39202;51.468;7.146;2022-11-18T03:28:29;23.20;45.70
53314;DHT22;39202;51.468;7.146;2022-11-18T03:33:36;23.20;45.70
53314;DHT22;39202;51.468;7.146;2022-11-18T03:38:44;23.20;45.70
53314;DHT22;39202;51.468;7.146;2022-11-18T03:43:52;23.20;45.80
53314;DHT22;39202;51.468;7.146;2022-11-18T03:48:58;23.20;45.70
53314;DHT22;39202;51.468;7.146;2022-11-18T03:54:04;23.20;45.70
53314;DHT22;39202;51.468;7.146;2022-11-18T03:59:13;23.20;45.70
53314;DHT22;39202;51.468;7.146;2022-11-18T04:04:18;23.20;45.70
53314;DHT22;39202;51.468;7.146;2022-11-18T04:09:23;23.20;45.70
53314;DHT22;39202;51.468;7.146;2022-11-18T04:14:26;23.20;45.80
53314;DHT22;39202;51.468;7.146;2022-11-18T04:19:29;23.10;45.70
53314;DHT22;39202;51.468;7.146;2022-11-18T04:24:31;23.10;45.70
53314;DHT22;39202;51.468;7.146;2022-11-18T04:29:33;23.10;45.70
53314;DHT22;39202;51.468;7.146;2022-11-18T04:34:36;23.10;45.60
53314;DHT22;39202;51.468;7.146;2022-11-18T04:39:38;23.10;45.70
53314;DHT22;39202;51.468;7.146;2022-11-18T04:44:39;23.10;45.70
53314;DHT22;39202;51.468;7.146;2022-11-18T04:49:42;23.10;45.70
53314;DHT22;39202;51.468;7.146;2022-11-18T04:54:44;23.10;45.70
53314;DHT22;39202;51.468;7.146;2022-11-18T04:59:46;23.10;45.70
53314;DHT22;39202;51.468;7.146;2022-11-18T05:04:49;23.10;45.60
53314;DHT22;39202;51.468;7.146;2022-11-18T05:09:50;23.10;45.70
53314;DHT22;39202;51.468;7.146;2022-11-18T05:14:52;23.10;45.70
53314;DHT22;39202;51.468;7.146;2022-11-18T05:19:55;23.10;45.70
53314;DHT22;39202;51.468;7.146;2022-11-18T05:24:57;23.10;45.60
53314;DHT22;39202;51.468;7.146;2022-11-18T05:29:59;23.10;45.60
53314;DHT22;39202;51.468;7.146;2022-11-18T05:35:02;23.10;45.60
53314;DHT22;39202;51.468;7.146;2022-11-18T05:40:05;23.10;45.70
53314;DHT22;39202;51.468;7.146;2022-11-18T05:45:07;23.10;45.70
53314;DHT22;39202;51.468;7.146;2022-11-18T05:50:10;23.10;45.60
53314;DHT22;39202;51.468;7.146;2022-11-18T05:55:13;23.10;45.60
53314;DHT22;39202;51.468;7.146;2022-11-18T06:00:17;23.10;45.70
53314;DHT22;39202;51.468;7.146;2022-11-18T06:05:22;23.00;45.60
53314;DHT22;39202;51.468;7.146;2022-11-18T06:10:28;23.00;45.60
53314;DHT22;39202;51.468;7.146;2022-11-18T06:15:33;23.00;46.20
53314;DHT22;39202;51.468;7.146;2022-11-18T06:20:39;23.00;45.60
53314;DHT22;39202;51.468;7.146;2022-11-18T06:25:41;23.00;45.60
53314;DHT22;39202;51.468;7.146;2022-11-18T06:30:43;23.00;45.60
53314;DHT22;39202;51.468;7.146;2022-11-18T06:35:46;23.00;45.70
53314;DHT22;39202;51.468;7.146;2022-11-18T06:40:48;23.00;45.70
53314;DHT22;39202;51.468;7.146;2022-11-18T06:45:50;23.00;45.60
53314;DHT22;39202;51.468;7.146;2022-11-18T06:51:07;23.00;45.70
53314;DHT22;39202;51.468;7.146;2022-11-18T06:56:10;23.00;45.60
53314;DHT22;39202;51.468;7.146;2022-11-18T07:01:14;22.90;45.60
53314;DHT22;39202;51.468;7.146;2022-11-18T07:06:19;22.90;45.60
53314;DHT22;39202;51.468;7.146;2022-11-18T07:11:23;22.90;45.60
53314;DHT22;39202;51.468;7.146;2022-11-18T07:16:25;22.90;45.80
53314;DHT22;39202;51.468;7.146;2022-11-18T07:21:28;22.90;45.90
53314;DHT22;39202;51.468;7.146;2022-11-18T07:26:30;23.00;46.20
53314;DHT22;39202;51.468;7.146;2022-11-18T07:31:32;23.10;46.40
53314;DHT22;39202;51.468;7.146;2022-11-18T07:36:36;23.20;46.50
53314;DHT22;39202;51.468;7.146;2022-11-18T07:41:39;23.30;46.70
53314;DHT22;39202;51.468;7.146;2022-11-18T07:46:40;23.40;46.80
53314;DHT22;39202;51.468;7.146;2022-11-18T07:51:43;23.50;46.80
53314;DHT22;39202;51.468;7.146;2022-11-18T07:56:45;23.60;46.90
53314;DHT22;39202;51.468;7.146;2022-11-18T08:01:47;23.80;46.90
53314;DHT22;39202;51.468;7.146;2022-11-18T08:06:50;23.90;46.80
53314;DHT22;39202;51.468;7.146;2022-11-18T08:11:52;24.10;46.80
53314;DHT22;39202;51.468;7.146;2022-11-18T08:16:54;24.30;46.20
53314;DHT22;39202;51.468;7.146;2022-11-18T08:21:57;24.20;46.70
53314;DHT22;39202;51.468;7.146;2022-11-18T08:26:58;24.40;46.60
53314;DHT22;39202;51.468;7.146;2022-11-18T08:32:00;24.50;46.50
53314;DHT22;39202;51.468;7.146;2022-11-18T08:37:03;24.60;46.40
53314;DHT22;39202;51.468;7.146;2022-11-18T08:42:05;24.60;46.20
53314;DHT22;39202;51.468;7.146;2022-11-18T08:47:07;24.60;45.90
53314;DHT22;39202;51.468;7.146;2022-11-18T08:52:10;24.60;45.70
53314;DHT22;39202;51.468;7.146;2022-11-18T08:57:11;24.70;45.70
53314;DHT22;39202;51.468;7.146;2022-11-18T09:02:14;24.60;45.70
53314;DHT22;39202;51.468;7.146;2022-11-18T09:07:18;24.60;45.80
53314;DHT22;39202;51.468;7.146;2022-11-18T09:12:20;24.70;45.90
53314;DHT22;39202;51.468;7.146;2022-11-18T09:17:21;24.70;45.90
53314;DHT22;39202;51.468;7.146;2022-11-18T09:22:25;24.80;45.90
53314;DHT22;39202;51.468;7.146;2022-11-18T09:27:26;24.80;45.90
53314;DHT22;39202;51.468;7.146;2022-11-18T09:32:28;24.80;45.90
53314;DHT22;39202;51.468;7.146;2022-11-18T09:37:32;24.90;46.00
53314;DHT22;39202;51.468;7.146;2022-11-18T09:42:44;24.90;46.00
53314;DHT22;39202;51.468;7.146;2022-11-18T09:47:49;25.00;46.00
53314;DHT22;39202;51.468;7.146;2022-11-18T09:53:02;25.00;46.00
53314;DHT22;39202;51.468;7.146;2022-11-18T09:58:05;25.10;46.00
53314;DHT22;39202;51.468;7.146;2022-11-18T10:03:14;25.10;45.90
53314;DHT22;39202;51.468;7.146;2022-11-18T10:08:23;25.10;45.90
53314;DHT22;39202;51.468;7.146;2022-11-18T10:13:38;25.20;45.90
53314;DHT22;39202;51.468;7.146;2022-11-18T10:18:47;25.20;45.90
53314;DHT22;39202;51.468;7.146;2022-11-18T10:23:53;25.20;45.80
53314;DHT22;39202;51.468;7.146;2022-11-18T10:28:59;25.20;45.80
53314;DHT22;39202;51.468;7.146;2022-11-18T10:34:01;25.20;45.80
53314;DHT22;39202;51.468;7.146;2022-11-18T10:39:10;25.20;45.80
53314;DHT22;39202;51.468;7.146;2022-11-18T10:44:28;25.30;45.90
53314;DHT22;39202;51.468;7.146;2022-11-18T10:49:37;25.30;45.80
53314;DHT22;39202;51.468;7.146;2022-11-18T10:54:41;25.30;45.70
53314;DHT22;39202;51.468;7.146;2022-11-18T10:59:46;25.30;45.80
53314;DHT22;39202;51.468;7.146;2022-11-18T11:04:51;25.30;45.80
53314;DHT22;39202;51.468;7.146;2022-11-18T11:10:18;25.40;45.90
53314;DHT22;39202;51.468;7.146;2022-11-18T11:15:27;25.40;45.80
53314;DHT22;39202;51.468;7.146;2022-11-18T11:20:33;25.50;45.80
53314;DHT22;39202;51.468;7.146;2022-11-18T11:25:42;25.50;45.90
53314;DHT22;39202;51.468;7.146;2022-11-18T11:30:53;25.60;45.90
53314;DHT22;39202;51.468;7.146;2022-11-18T11:36:14;25.60;45.80
53314;DHT22;39202;51.468;7.146;2022-11-18T11:41:21;25.60;45.70
53314;DHT22;39202;51.468;7.146;2022-11-18T11:46:28;25.70;45.70
53314;DHT22;39202;51.468;7.146;2022-11-18T11:51:38;25.60;45.60
53314;DHT22;39202;51.468;7.146;2022-11-18T11:56:46;25.70;45.60
53314;DHT22;39202;51.468;7.146;2022-11-18T12:01:57;25.70;45.60
53314;DHT22;39202;51.468;7.146;2022-11-18T12:06:59;25.70;45.60
53314;DHT22;39202;51.468;7.146;2022-11-18T12:12:06;25.70;45.60
53314;DHT22;39202;51.468;7.146;2022-11-18T12:17:33;25.70;45.50
53314;DHT22;39202;51.468;7.146;2022-11-18T12:23:09;25.70;45.40
53314;DHT22;39202;51.468;7.146;2022-11-18T12:28:22;25.80;45.40
53314;DHT22;39202;51.468;7.146;2022-11-18T12:33:24;25.70;45.30
53314;DHT22;39202;51.468;7.146;2022-11-18T12:38:29;25.70;63.20
53314;DHT22;39202;51.468;7.146;2022-11-18T12:44:08;25.80;45.30
53314;DHT22;39202;51.468;7.146;2022-11-18T12:54:50;25.60;49.70
53314;DHT22;39202;51.468;7.146;2022-11-18T12:59:53;25.80;55.90
53314;DHT22;39202;51.468;7.146;2022-11-18T13:05:07;25.80;59.00
53314;DHT22;39202;51.468;7.146;2022-11-18T13:10:19;25.80;59.90
53314;DHT22;39202;51.468;7.146;2022-11-18T13:15:24;25.70;60.80
53314;DHT22;39202;51.468;7.146;2022-11-18T13:20:54;25.80;45.50
53314;DHT22;39202;51.468;7.146;2022-11-18T13:26:03;25.80;45.50
53314;DHT22;39202;51.468;7.146;2022-11-18T13:31:11;25.80;45.50
53314;DHT22;39202;51.468;7.146;2022-11-18T13:36:18;25.70;45.50
53314;DHT22;39202;51.468;7.146;2022-11-18T13:41:21;25.70;45.60
53314;DHT22;39202;51.468;7.146;2022-11-18T13:46:25;25.70;45.60
53314;DHT22;39202;51.468;7.146;2022-11-18T13:51:27;25.70;45.60
53314;DHT22;39202;51.468;7.146;2022-11-18T13:56:29;25.70;45.60
53314;DHT22;39202;51.468;7.146;2022-11-18T14:01:33;25.70;45.70
53314;DHT22;39202;51.468;7.146;2022-11-18T14:06:37;25.70;45.70
53314;DHT22;39202;51.468;7.146;2022-11-18T14:11:41;25.70;46.40
53314;DHT22;39202;51.468;7.146;2022-11-18T14:16:44;25.70;45.80
53314;DHT22;39202;51.468;7.146;2022-11-18T14:21:46;25.70;45.80
53314;DHT22;39202;51.468;7.146;2022-11-18T14:26:47;25.60;45.80
53314;DHT22;39202;51.468;7.146;2022-11-18T14:32:12;25.60;45.90
53314;DHT22;39202;51.468;7.146;2022-11-18T14:37:14;25.60;46.00
53314;DHT22;39202;51.468;7.146;2022-11-18T14:42:16;25.60;45.90
53314;DHT22;39202;51.468;7.146;2022-11-18T14:47:23;25.60;46.00
53314;DHT22;39202;51.468;7.146;2022-11-18T14:52:26;25.60;46.00
53314;DHT22;39202;51.468;7.146;2022-11-18T14:57:28;25.60;45.90
53314;DHT22;39202;51.468;7.146;2022-11-18T15:02:31;25.60;46.00
53314;DHT22;39202;51.468;7.146;2022-11-18T15:07:33;25.60;46.00
53314;DHT22;39202;51.468;7.146;2022-11-18T15:12:35;25.50;46.00
53314;DHT22;39202;51.468;7.146;2022-11-18T15:17:38;25.60;46.00
53314;DHT22;39202;51.468;7.146;2022-11-18T15:22:40;25.50;45.60
53314;DHT22;39202;51.468;7.146;2022-11-18T15:27:41;25.50;45.50
53314;DHT22;39202;51.468;7.146;2022-11-18T15:32:44;25.40;45.40
53314;DHT22;39202;51.468;7.146;2022-11-18T15:37:46;25.40;45.40
53314;DHT22;39202;51.468;7.146;2022-11-18T15:42:48;25.30;45.50
53314;DHT22;39202;51.468;7.146;2022-11-18T15:47:51;25.30;45.70
53314;DHT22;39202;51.468;7.146;2022-11-18T15:52:53;25.30;45.80
53314;DHT22;39202;51.468;7.146;2022-11-18T15:57:55;25.30;45.90
53314;DHT22;39202;51.468;7.146;2022-11-18T16:02:58;25.30;45.90
53314;DHT22;39202;51.468;7.146;2022-11-18T16:08:00;25.30;45.90
53314;DHT22;39202;51.468;7.146;2022-11-18T16:13:01;25.30;46.00
53314;DHT22;39202;51.468;7.146;2022-11-18T16:18:05;25.40;46.00
53314;DHT22;39202;51.468;7.146;2022-11-18T16:23:06;25.40;46.10
53314;DHT22;39202;51.468;7.146;2022-11-18T16:28:08;25.40;46.10
53314;DHT22;39202;51.468;7.146;2022-11-18T16:33:11;25.40;46.10
53314;DHT22;39202;51.468;7.146;2022-11-18T16:38:13;25.50;46.20
53314;DHT22;39202;51.468;7.146;2022-11-18T16:43:14;25.50;46.20
53314;DHT22;39202;51.468;7.146;2022-11-18T16:48:18;25.50;46.20
53314;DHT22;39202;51.468;7.146;2022-11-18T16:53:19;25.50;46.20
53314;DHT22;39202;51.468;7.146;2022-11-18T16:58:21;25.50;46.20
53314;DHT22;39202;51.468;7.146;2022-11-18T17:03:24;25.50;46.20
53314;DHT22;39202;51.468;7.146;2022-11-18T17:08:26;25.50;46.20
53314;DHT22;39202;51.468;7.146;2022-11-18T17:13:28;25.50;46.10
53314;DHT22;39202;51.468;7.146;2022-11-18T17:18:31;25.50;46.10
53314;DHT22;39202;51.468;7.146;2022-11-18T17:23:32;25.40;46.00
53314;DHT22;39202;51.468;7.146;2022-11-18T17:28:35;25.40;46.00
53314;DHT22;39202;51.468;7.146;2022-11-18T17:33:39;25.40;45.90
53314;DHT22;39202;51.468;7.146;2022-11-18T17:43:44;25.30;45.70
53314;DHT22;39202;51.468;7.146;2022-11-18T17:48:47;25.30;45.80
53314;DHT22;39202;51.468;7.146;2022-11-18T17:53:49;25.20;45.80
53314;DHT22;39202;51.468;7.146;2022-11-18T17:58:51;25.20;45.80
53314;DHT22;39202;51.468;7.146;2022-11-18T18:03:54;25.10;45.70
53314;DHT22;39202;51.468;7.146;2022-11-18T18:08:56;25.10;45.80
53314;DHT22;39202;51.468;7.146;2022-11-18T18:13:58;25.10;45.80
53314;DHT22;39202;51.468;7.146;2022-11-18T18:19:17;25.10;45.80
53314;DHT22;39202;51.468;7.146;2022-11-18T18:24:19;25.00;45.80
53314;DHT22;39202;51.468;7.146;2022-11-18T18:29:21;25.00;45.70
53314;DHT22;39202;51.468;7.146;2022-11-18T18:34:26;25.00;45.70
53314;DHT22;39202;51.468;7.146;2022-11-18T18:39:28;25.00;45.80
53314;DHT22;39202;51.468;7.146;2022-11-18T18:44:29;24.90;45.80
53314;DHT22;39202;51.468;7.146;2022-11-18T18:49:46;24.80;45.70
53314;DHT22;39202;51.468;7.146;2022-11-18T18:54:48;24.80;45.80
53314;DHT22;39202;51.468;7.146;2022-11-18T18:59:50;24.80;45.80
53314;DHT22;39202;51.468;7.146;2022-11-18T19:04:53;24.80;45.80
53314;DHT22;39202;51.468;7.146;2022-11-18T19:09:54;24.70;45.80
53314;DHT22;39202;51.468;7.146;2022-11-18T19:14:56;24.70;45.80
53314;DHT22;39202;51.468;7.146;2022-11-18T19:19:59;24.70;45.90
53314;DHT22;39202;51.468;7.146;2022-11-18T19:25:18;24.60;45.80
53314;DHT22;39202;51.468;7.146;2022-11-18T19:30:20;24.60;45.80
53314;DHT22;39202;51.468;7.146;2022-11-18T19:35:23;24.60;45.90
53314;DHT22;39202;51.468;7.146;2022-11-18T19:40:25;24.50;45.80
53314;DHT22;39202;51.468;7.146;2022-11-18T19:45:27;24.50;45.80
53314;DHT22;39202;51.468;7.146;2022-11-18T19:50:30;24.50;45.80
53314;DHT22;39202;51.468;7.146;2022-11-18T19:55:32;24.50;45.90
53314;DHT22;39202;51.468;7.146;2022-11-18T20:00:33;24.40;45.90
53314;DHT22;39202;51.468;7.146;2022-11-18T20:05:36;24.40;45.90
53314;DHT22;39202;51.468;7.146;2022-11-18T20:10:53;24.30;45.90
53314;DHT22;39202;51.468;7.146;2022-11-18T20:15:59;24.30;45.80
53314;DHT22;39202;51.468;7.146;2022-11-18T20:21:04;24.30;45.90
53314;DHT22;39202;51.468;7.146;2022-11-18T20:26:09;24.30;45.90
53314;DHT22;39202;51.468;7.146;2022-11-18T20:31:13;24.30;45.90
53314;DHT22;39202;51.468;7.146;2022-11-18T20:36:18;24.30;45.90
53314;DHT22;39202;51.468;7.146;2022-11-18T20:41:21;24.20;45.90
53314;DHT22;39202;51.468;7.146;2022-11-18T20:46:23;24.20;45.90
53314;DHT22;39202;51.468;7.146;2022-11-18T20:51:27;24.20;45.90
53314;DHT22;39202;51.468;7.146;2022-11-18T20:56:28;24.20;45.90
53314;DHT22;39202;51.468;7.146;2022-11-18T21:01:30;24.10;45.90
53314;DHT22;39202;51.468;7.146;2022-11-18T21:06:34;24.10;45.90
53314;DHT22;39202;51.468;7.146;2022-11-18T21:11:37;24.10;45.90
53314;DHT22;39202;51.468;7.146;2022-11-18T21:16:39;24.10;45.90
53314;DHT22;39202;51.468;7.146;2022-11-18T21:21:42;24.10;45.90
53314;DHT22;39202;51.468;7.146;2022-11-18T21:26:50;24.00;45.90
53314;DHT22;39202;51.468;7.146;2022-11-18T21:31:54;24.00;45.90
53314;DHT22;39202;51.468;7.146;2022-11-18T21:36:58;24.00;46.00
53314;DHT22;39202;51.468;7.146;2022-11-18T21:42:00;24.00;46.10
53314;DHT22;39202;51.468;7.146;2022-11-18T21:47:02;23.90;45.90
53314;DHT22;39202;51.468;7.146;2022-11-18T21:52:05;23.90;45.90
53314;DHT22;39202;51.468;7.146;2022-11-18T21:57:06;23.90;45.80
53314;DHT22;39202;51.468;7.146;2022-11-18T22:02:12;23.90;45.90
53314;DHT22;39202;51.468;7.146;2022-11-18T22:07:15;23.90;45.90
53314;DHT22;39202;51.468;7.146;2022-11-18T22:12:17;23.90;45.90
53314;DHT22;39202;51.468;7.146;2022-11-18T22:17:18;23.90;45.90
53314;DHT22;39202;51.468;7.146;2022-11-18T22:22:21;23.80;45.90
53314;DHT22;39202;51.468;7.146;2022-11-18T22:27:23;23.80;45.90
53314;DHT22;39202;51.468;7.146;2022-11-18T22:32:25;23.80;45.90
53314;DHT22;39202;51.468;7.146;2022-11-18T22:37:28;23.80;45.90
53314;DHT22;39202;51.468;7.146;2022-11-18T22:42:29;23.80;45.90
53314;DHT22;39202;51.468;7.146;2022-11-18T22:47:49;23.80;46.00
53314;DHT22;39202;51.468;7.146;2022-11-18T22:52:52;23.70;45.90
53314;DHT22;39202;51.468;7.146;2022-11-18T22:57:54;23.70;45.90
53314;DHT22;39202;51.468;7.146;2022-11-18T23:02:56;23.70;45.90
53314;DHT22;39202;51.468;7.146;2022-11-18T23:07:59;23.70;45.90
53314;DHT22;39202;51.468;7.146;2022-11-18T23:13:01;23.70;45.90
53314;DHT22;39202;51.468;7.146;2022-11-18T23:18:20;23.60;45.90
53314;DHT22;39202;51.468;7.146;2022-11-18T23:23:23;23.60;45.90
53314;DHT22;39202;51.468;7.146;2022-11-18T23:28:25;23.60;45.90
53314;DHT22;39202;51.468;7.146;2022-11-18T23:33:26;23.60;45.90
53314;DHT22;39202;51.468;7.146;2022-11-18T23:38:31;23.60;46.00
53314;DHT22;39202;51.468;7.146;2022-11-18T23:43:33;23.60;46.00
53314;DHT22;39202;51.468;7.146;2022-11-18T23:48:38;23.50;45.90
53314;DHT22;39202;51.468;7.146;2022-11-18T23:53:41;23.50;45.90
53314;DHT22;39202;51.468;7.146;2022-11-18T23:58:44;23.50;45.90
